Cotter, Iowa
Current Conditions -  °F | °C
As of 7:35 PM on Thursday 18 Dec 2014 (Local Time) from KAWG Reporting Station
Overcast Overcast  
Wind Chill: -6°   Ceiling: 4400
Heat Index: -3°   Visibility: 10mi
Dew Point: -5°   Wind: 5mph
Humidity: 86%   Direction: 360°N
Pressure: 30.28"   Gusts: NA
Location:  41.2636°N, 91.4145°W
Report Text: KAWG 190135Z AUTO 36004KT 10SM OVC044 M03/M05 A3028 RMK AO2
Loading
Personal Weather Stations






























Interactive Weather Map New forecast layout! Learn more

10-Day Weather Forecast

Advertisements
Track Severe Weather on mobile